Huvudsida
METAR-TAF:

METAR-TAF

Flygplatser :

Thule Air Base

Thule, Grönland

latitud: 76-32N, longitud: 068-42W, höjd: 77 m

Aktuellt väderrapport

Denna rapport gjordes för 33 minuter sedan, klockan 00:06 UTC
Vind 7 kt från ost
Temperatur -25°C
Fuktighet 91%
Tryck 1010 hPa
Sikt 10 km eller mer
Spridda moln på en höjd av 2100 ft

METAR: BGTL 150006Z AUTO 10007KT 9999 SCT021 M25/M26 A2983 RMK AO2 SLP094 TSNO $

Tid: 20:39 (00:39 UTC)

Väderprognos

Denna rapport gjordes för 6 timmar och 39 minuter sedan, klockan 18:00 UTC
Prognos gäller från 14 kl. 18 UTC till 15 kl. 24 UTC
Vind 6 kt från ost/sydost
Sikt 10 km eller mer
Brutna moln på en höjd av 1800 ft
Blir
från 15 kl. 06 UTC till 15 kl. 07 UTC
Vind 6 kt från sydost
Sikt: 1510 m
Få moln på en höjd av 2000 ft

TAF: BGTL 141800Z 1418/1524 11006KT 9999 BKN018 QNH2983INS BECMG 1506/1507 14006KT 9999 FEW020 QNH2975INS TXM19/1419Z TNM28/1510Z LAST NO AMDS AFT 1420 NEXT 1510

Aktuella väderrapporter och prognoser från 4000 flygplatser (METAR- och TAF-rapporter).

De tillgängliga stationerna syns som gula och röda prickar på kartan.

För musen över prickarna för att se namnen på stationerna.

Klicka sedan för att få väderrapporter och prognoser.

För att ändra kartan: Klicka på de gröna knapparna med ett svart kors på för att zooma in; den gröna knappen med ett streck på för att zooma ut; eller på de gröna pilarna för angränsande kartor.


METAR-TAF: